createdAt,value
2022-09-11T00:02:57.669Z,3.70
2022-09-11T00:06:08.178Z,4.35
2022-09-11T00:09:10.004Z,3.80
2022-09-11T00:12:12.470Z,3.83
2022-09-11T00:15:14.144Z,3.92
2022-09-11T00:18:21.649Z,3.80
2022-09-11T00:24:25.091Z,3.58
2022-09-11T00:27:26.870Z,3.85
2022-09-11T00:30:29.205Z,3.67
2022-09-11T00:33:31.287Z,4.32
2022-09-11T00:36:33.041Z,4.20
2022-09-11T00:39:34.956Z,3.80
2022-09-11T00:42:36.795Z,4.22
2022-09-11T00:45:39.072Z,3.55
2022-09-11T00:48:40.794Z,4.05
2022-09-11T00:51:45.020Z,4.22
2022-09-11T00:54:51.605Z,3.30
2022-09-11T00:58:10.662Z,3.83
2022-09-11T01:01:14.802Z,3.60
2022-09-11T01:04:16.892Z,4.30
2022-09-11T01:07:20.973Z,3.83
2022-09-11T01:10:47.772Z,3.88
2022-09-11T01:14:08.970Z,3.03
2022-09-11T01:17:33.606Z,3.22
2022-09-11T01:21:07.548Z,3.50
2022-09-11T01:24:27.376Z,3.50
2022-09-11T01:27:43.106Z,3.05
2022-09-11T01:30:49.993Z,3.67
2022-09-11T01:33:59.626Z,3.70
2022-09-11T01:37:06.782Z,3.38
2022-09-11T01:40:17.642Z,3.92
2022-09-11T01:43:26.972Z,3.42
2022-09-11T01:46:35.167Z,3.63
2022-09-11T01:49:43.568Z,3.35
2022-09-11T01:52:50.540Z,3.60
2022-09-11T01:56:08.067Z,3.38
2022-09-11T01:59:16.398Z,3.15
2022-09-11T02:02:24.458Z,3.13
2022-09-11T02:05:35.082Z,3.05
2022-09-11T02:08:54.445Z,3.25
2022-09-11T02:12:03.093Z,2.88
2022-09-11T02:15:05.833Z,3.22
2022-09-11T02:18:39.318Z,3.08
2022-09-11T02:21:41.046Z,2.80
2022-09-11T02:24:43.035Z,2.53
2022-09-11T02:27:44.807Z,3.22
2022-09-11T02:30:46.761Z,2.60
2022-09-11T02:33:50.209Z,2.90
2022-09-11T02:37:12.242Z,2.95
2022-09-11T02:40:37.991Z,2.97
2022-09-11T02:44:11.367Z,2.80
2022-09-11T02:47:33.865Z,3.20
2022-09-11T02:50:59.406Z,2.53
2022-09-11T02:54:19.751Z,2.67
2022-09-11T02:57:34.745Z,2.47
2022-09-11T03:00:36.932Z,2.85
2022-09-11T03:03:41.182Z,2.50
2022-09-11T03:06:43.793Z,2.97
2022-09-11T03:09:45.531Z,2.83
2022-09-11T03:12:55.013Z,2.50
2022-09-11T03:15:56.835Z,2.60
2022-09-11T03:18:58.654Z,2.40
2022-09-11T03:22:00.421Z,2.47
2022-09-11T03:25:02.189Z,2.38
2022-09-11T03:28:05.890Z,2.67
2022-09-11T03:31:09.429Z,2.60
2022-09-11T03:34:11.715Z,2.10
2022-09-11T03:37:15.919Z,2.85
2022-09-11T03:40:17.921Z,2.50
2022-09-11T03:43:20.034Z,2.30
2022-09-11T03:46:21.961Z,2.20
2022-09-11T03:49:23.926Z,2.40
2022-09-11T03:52:25.807Z,2.38
2022-09-11T03:55:28.584Z,2.53
2022-09-11T03:58:30.310Z,2.28
2022-09-11T04:01:32.356Z,2.53
2022-09-11T04:04:34.408Z,2.65
2022-09-11T04:07:36.182Z,2.38
2022-09-11T04:10:38.429Z,2.30
2022-09-11T04:13:42.078Z,2.42
2022-09-11T04:16:47.813Z,2.42
2022-09-11T04:19:49.685Z,2.20
2022-09-11T04:22:52.480Z,2.30
2022-09-11T04:25:54.992Z,2.35
2022-09-11T04:28:58.762Z,2.95
2022-09-11T04:32:01.025Z,2.63
2022-09-11T04:35:06.366Z,2.40
2022-09-11T04:38:13.314Z,2.50
2022-09-11T04:41:16.504Z,2.00
2022-09-11T04:44:20.616Z,2.30
2022-09-11T04:47:22.405Z,2.05
2022-09-11T04:50:24.945Z,1.95
2022-09-11T04:53:44.917Z,2.13
2022-09-11T04:56:46.949Z,2.13
2022-09-11T04:59:50.694Z,2.25
2022-09-11T05:02:54.551Z,2.30
2022-09-11T05:05:56.567Z,2.30
2022-09-11T05:09:04.377Z,2.15
2022-09-11T05:12:08.687Z,2.17
2022-09-11T05:15:11.828Z,2.20
2022-09-11T05:18:13.641Z,2.00
2022-09-11T05:21:18.032Z,1.75
2022-09-11T05:24:21.022Z,2.10
2022-09-11T05:27:22.821Z,1.85
2022-09-11T05:30:24.699Z,1.95
2022-09-11T05:33:27.952Z,2.10
2022-09-11T05:36:33.362Z,2.10
2022-09-11T05:39:36.389Z,2.20
2022-09-11T05:42:38.959Z,2.47
2022-09-11T05:45:41.862Z,2.03
2022-09-11T05:48:43.796Z,2.10
2022-09-11T05:51:45.588Z,1.70
2022-09-11T05:54:47.354Z,2.05
2022-09-11T05:57:52.626Z,2.10
2022-09-11T06:01:03.555Z,2.28
2022-09-11T06:04:10.639Z,1.77
2022-09-11T06:07:13.738Z,1.55
2022-09-11T06:10:18.036Z,1.75
2022-09-11T06:13:19.784Z,1.92
2022-09-11T06:16:25.585Z,1.90
2022-09-11T06:19:31.126Z,1.90
2022-09-11T06:22:36.371Z,2.20
2022-09-11T06:25:38.830Z,2.03
2022-09-11T06:28:41.597Z,1.48
2022-09-11T06:31:47.665Z,1.80
2022-09-11T06:34:49.710Z,2.00
2022-09-11T06:37:51.514Z,1.75
2022-09-11T06:40:54.951Z,2.20
2022-09-11T06:43:56.922Z,2.13
2022-09-11T06:46:59.806Z,1.80
2022-09-11T06:50:01.975Z,2.08
2022-09-11T06:53:08.513Z,1.77
2022-09-11T06:56:15.671Z,2.00
2022-09-11T06:59:23.658Z,1.58
2022-09-11T07:02:25.635Z,1.40
2022-09-11T07:05:29.350Z,1.80
2022-09-11T07:08:31.368Z,2.17
2022-09-11T07:11:35.156Z,1.38
2022-09-11T07:14:38.472Z,2.13
2022-09-11T07:17:46.676Z,1.73
2022-09-11T07:20:49.349Z,1.40
2022-09-11T07:23:54.444Z,1.48
2022-09-11T07:26:56.622Z,1.80
2022-09-11T07:30:06.202Z,1.67
2022-09-11T07:33:12.395Z,2.03
2022-09-11T07:36:20.982Z,2.03
2022-09-11T07:39:25.529Z,1.90
2022-09-11T07:42:50.242Z,1.77
2022-09-11T07:45:53.742Z,1.85
2022-09-11T07:48:56.230Z,1.67
2022-09-11T07:51:59.292Z,1.70
2022-09-11T07:55:13.308Z,1.70
2022-09-11T07:58:15.407Z,1.75
2022-09-11T08:01:21.093Z,1.90
2022-09-11T08:04:23.210Z,1.58
2022-09-11T08:07:25.485Z,1.80
2022-09-11T08:10:28.377Z,1.50
2022-09-11T08:13:31.999Z,1.77
2022-09-11T08:16:36.031Z,1.50
2022-09-11T08:19:38.850Z,2.00
2022-09-11T08:22:41.995Z,1.33
2022-09-11T08:25:44.595Z,1.85
2022-09-11T08:28:46.394Z,1.92
2022-09-11T08:31:48.829Z,1.67
2022-09-11T08:34:51.601Z,1.58
2022-09-11T08:37:55.451Z,1.40
2022-09-11T08:41:07.776Z,1.90
2022-09-11T08:44:09.511Z,1.80
2022-09-11T08:47:19.096Z,3.22
2022-09-11T08:50:25.078Z,3.30
2022-09-11T08:53:32.439Z,3.38
2022-09-11T08:56:36.193Z,2.63
2022-09-11T08:59:59.679Z,2.53
2022-09-11T09:03:47.343Z,2.28
2022-09-11T09:07:09.056Z,1.95
2022-09-11T09:10:52.651Z,2.20
2022-09-11T09:14:20.400Z,2.15
2022-09-11T09:17:27.123Z,1.98
2022-09-11T09:20:33.689Z,2.07
2022-09-11T09:23:46.043Z,2.13
2022-09-11T09:26:52.926Z,1.95
2022-09-11T09:29:57.900Z,2.33
2022-09-11T09:33:22.180Z,2.08
2022-09-11T09:36:33.784Z,1.95
2022-09-11T09:39:37.203Z,1.92
2022-09-11T09:43:01.963Z,2.10
2022-09-11T09:46:09.467Z,1.77
2022-09-11T09:52:24.286Z,3.55
2022-09-11T09:55:26.610Z,3.10
2022-09-11T09:58:34.426Z,2.60
2022-09-11T10:01:53.943Z,2.45
2022-09-11T10:05:16.795Z,2.00
2022-09-11T10:08:28.956Z,2.00
2022-09-11T10:11:31.242Z,2.30
2022-09-11T10:14:55.805Z,2.40
2022-09-11T10:18:32.313Z,2.33
2022-09-11T10:21:35.254Z,2.22
2022-09-11T10:24:36.962Z,2.17
2022-09-11T10:28:03.385Z,2.20
2022-09-11T10:31:05.578Z,2.00
2022-09-11T10:34:15.405Z,2.42
2022-09-11T10:37:35.384Z,2.65
2022-09-11T10:40:39.934Z,1.88
2022-09-11T10:44:13.891Z,1.95
2022-09-11T10:47:32.571Z,2.22
2022-09-11T10:50:34.846Z,2.13
2022-09-11T10:54:01.660Z,2.50
2022-09-11T10:57:18.488Z,2.00
2022-09-11T11:00:25.914Z,2.30
2022-09-11T11:07:25.631Z,2.10
2022-09-11T11:11:04.741Z,2.33
2022-09-11T11:14:37.789Z,2.15
2022-09-11T11:17:54.982Z,2.20
2022-09-11T11:21:04.770Z,2.17
2022-09-11T11:24:17.640Z,2.40
2022-09-11T11:27:44.753Z,2.28
2022-09-11T11:31:20.406Z,2.67
2022-09-11T11:34:48.248Z,2.47
2022-09-11T11:37:55.607Z,3.08
2022-09-11T11:41:04.261Z,3.05
2022-09-11T11:44:10.550Z,3.13
2022-09-11T11:47:14.657Z,2.80
2022-09-11T11:50:37.491Z,2.92
2022-09-11T11:54:02.146Z,2.55
2022-09-11T11:57:11.310Z,3.13
2022-09-11T12:00:17.556Z,3.22
2022-09-11T12:03:38.667Z,3.03
2022-09-11T12:06:40.427Z,2.97
2022-09-11T12:09:49.279Z,3.22
2022-09-11T12:12:56.253Z,3.05
2022-09-11T12:16:21.245Z,3.05
2022-09-11T12:19:27.627Z,2.95
2022-09-11T12:22:34.568Z,2.50
2022-09-11T12:25:36.553Z,3.10
2022-09-11T12:28:38.260Z,2.85
2022-09-11T12:32:02.973Z,3.05
2022-09-11T12:35:20.080Z,2.72
2022-09-11T12:38:35.515Z,3.00
2022-09-11T12:41:37.725Z,2.70
2022-09-11T12:44:48.552Z,2.60
2022-09-11T12:47:51.184Z,2.15
2022-09-11T12:50:56.990Z,2.35
2022-09-11T12:54:11.750Z,2.40
2022-09-11T12:57:35.143Z,2.90
2022-09-11T13:00:43.663Z,2.90
2022-09-11T13:03:56.109Z,2.70
2022-09-11T13:06:58.941Z,2.30
2022-09-11T13:10:08.605Z,2.60
2022-09-11T13:13:35.210Z,2.42
2022-09-11T13:16:44.469Z,2.30
2022-09-11T13:19:46.261Z,2.60
2022-09-11T13:22:49.120Z,2.33
2022-09-11T13:25:51.166Z,2.55
2022-09-11T13:28:55.787Z,2.40
2022-09-11T13:31:59.477Z,2.30
2022-09-11T13:35:09.505Z,2.20
2022-09-11T13:38:23.137Z,2.58
2022-09-11T13:41:29.849Z,2.17
2022-09-11T13:44:44.237Z,2.25
2022-09-11T13:47:46.359Z,2.60
2022-09-11T13:50:50.666Z,2.03
2022-09-11T13:53:58.442Z,2.28
2022-09-11T13:57:00.138Z,2.63
2022-09-11T14:00:03.475Z,2.10
2022-09-11T14:03:22.842Z,2.60
2022-09-11T14:06:24.831Z,2.20
2022-09-11T14:09:26.685Z,2.50
2022-09-11T14:12:29.084Z,2.13
2022-09-11T14:15:33.677Z,2.30
2022-09-11T14:18:39.965Z,2.35
2022-09-11T14:21:47.952Z,1.80
2022-09-11T14:25:02.646Z,2.72
2022-09-11T14:28:04.414Z,1.90
2022-09-11T14:31:12.213Z,2.20
2022-09-11T14:34:27.912Z,2.20
2022-09-11T14:37:34.468Z,1.85
2022-09-11T14:40:36.612Z,2.00
2022-09-11T14:43:38.895Z,2.05
2022-09-11T14:46:40.694Z,2.00
2022-09-11T14:49:42.606Z,2.17
2022-09-11T14:52:44.313Z,2.35
2022-09-11T14:55:46.071Z,1.95
2022-09-11T14:58:48.641Z,2.30
2022-09-11T15:01:54.303Z,2.38
2022-09-11T15:04:58.155Z,2.55
2022-09-11T15:08:00.605Z,2.28
2022-09-11T15:11:02.428Z,2.10
2022-09-11T15:14:16.348Z,2.17
2022-09-11T15:17:24.172Z,1.95
2022-09-11T15:20:27.565Z,2.20
2022-09-11T15:23:29.313Z,2.00
2022-09-11T15:26:33.133Z,1.90
2022-09-11T15:29:34.853Z,2.00
2022-09-11T15:32:38.038Z,2.58
2022-09-11T15:35:39.777Z,2.38
2022-09-11T15:38:41.652Z,2.58
2022-09-11T15:41:44.399Z,2.15
2022-09-11T15:44:46.189Z,2.53
2022-09-11T15:47:47.953Z,2.00
2022-09-11T15:51:00.459Z,1.80
2022-09-11T15:54:03.044Z,2.30
2022-09-11T15:57:04.817Z,1.90
2022-09-11T16:00:07.409Z,2.50
2022-09-11T16:03:13.664Z,2.15
2022-09-11T16:06:15.390Z,2.00
2022-09-11T16:09:29.262Z,2.15
2022-09-11T16:12:31.024Z,2.28
2022-09-11T16:15:33.678Z,2.08
2022-09-11T16:18:42.470Z,2.20
2022-09-11T16:21:44.385Z,2.05
2022-09-11T16:24:46.183Z,2.67
2022-09-11T16:27:48.517Z,1.88
2022-09-11T16:30:53.942Z,2.15
2022-09-11T16:33:56.887Z,2.00
2022-09-11T16:36:59.227Z,2.15
2022-09-11T16:40:02.575Z,2.22
2022-09-11T16:43:07.696Z,2.15
2022-09-11T16:46:09.626Z,1.92
2022-09-11T16:49:17.036Z,1.90
2022-09-11T16:52:18.766Z,2.10
2022-09-11T16:55:21.274Z,1.90
2022-09-11T16:58:23.517Z,2.17
2022-09-11T17:01:27.682Z,1.80
2022-09-11T17:04:29.560Z,1.83
2022-09-11T17:07:31.906Z,2.15
2022-09-11T17:10:33.604Z,1.90
2022-09-11T17:13:35.884Z,1.98
2022-09-11T17:16:38.617Z,1.80
2022-09-11T17:19:40.363Z,1.65
2022-09-11T17:22:42.354Z,2.10
2022-09-11T17:25:45.562Z,1.95
2022-09-11T17:28:48.896Z,2.30
2022-09-11T17:32:05.079Z,1.52
2022-09-11T17:35:13.156Z,1.98
2022-09-11T17:38:14.927Z,1.67
2022-09-11T17:41:16.850Z,1.80
2022-09-11T17:44:18.611Z,1.92
2022-09-11T17:47:20.507Z,1.80
2022-09-11T17:50:22.373Z,1.80
2022-09-11T17:53:24.119Z,1.75
2022-09-11T17:56:30.625Z,2.17
2022-09-11T17:59:32.466Z,1.80
2022-09-11T18:02:34.201Z,2.00
2022-09-11T18:05:41.564Z,2.03
2022-09-11T18:08:43.847Z,1.90
2022-09-11T18:11:48.100Z,1.90
2022-09-11T18:14:50.063Z,2.08
2022-09-11T18:17:53.694Z,1.73
2022-09-11T18:20:55.456Z,1.63
2022-09-11T18:23:57.506Z,1.90
2022-09-11T18:27:01.051Z,1.85
2022-09-11T18:30:03.143Z,2.17
2022-09-11T18:33:08.904Z,1.90
2022-09-11T18:39:17.900Z,1.60
2022-09-11T18:42:19.588Z,1.92
2022-09-11T18:45:21.538Z,1.92
2022-09-11T18:48:23.945Z,2.10
2022-09-11T18:51:27.053Z,2.03
2022-09-11T18:54:29.973Z,1.73
2022-09-11T18:57:36.332Z,1.85
2022-09-11T19:00:41.234Z,1.80
2022-09-11T19:03:44.104Z,1.95
2022-09-11T19:06:46.234Z,1.95
2022-09-11T19:09:49.329Z,1.52
2022-09-11T19:12:51.027Z,1.65
2022-09-11T19:16:00.345Z,1.40
2022-09-11T19:19:02.886Z,1.80
2022-09-11T19:22:04.641Z,1.42
2022-09-11T19:25:08.448Z,1.80
2022-09-11T19:28:11.021Z,1.60
2022-09-11T19:31:14.795Z,1.90
2022-09-11T19:34:16.837Z,1.80
2022-09-11T19:37:20.111Z,1.90
2022-09-11T19:40:21.788Z,1.50
2022-09-11T19:43:24.878Z,1.83
2022-09-11T19:46:27.660Z,1.73
2022-09-11T19:49:29.865Z,1.63
2022-09-11T19:52:33.177Z,1.95
2022-09-11T19:55:35.204Z,2.20
2022-09-11T19:58:38.798Z,1.88
2022-09-11T20:01:40.525Z,1.90
2022-09-11T20:04:42.275Z,1.63
2022-09-11T20:07:43.939Z,1.70
2022-09-11T20:10:46.839Z,1.70
2022-09-11T20:13:48.901Z,1.70
2022-09-11T20:16:50.683Z,2.17
2022-09-11T20:19:52.622Z,2.03
2022-09-11T20:22:57.158Z,2.00
2022-09-11T20:26:17.210Z,1.70
2022-09-11T20:29:19.230Z,2.10
2022-09-11T20:32:20.945Z,1.88
2022-09-11T20:35:22.661Z,1.92
2022-09-11T20:38:24.426Z,1.55
2022-09-11T20:41:29.599Z,1.65
2022-09-11T20:44:36.244Z,1.48
2022-09-11T20:47:38.692Z,1.80
2022-09-11T20:50:40.405Z,1.88
2022-09-11T20:53:45.542Z,1.85
2022-09-11T20:56:47.310Z,1.45
2022-09-11T20:59:49.890Z,1.70
2022-09-11T21:02:51.597Z,1.70
2022-09-11T21:05:55.091Z,1.73
2022-09-11T21:08:59.093Z,2.15
2022-09-11T21:12:00.815Z,1.70
2022-09-11T21:15:02.523Z,1.50
2022-09-11T21:18:04.445Z,1.90
2022-09-11T21:21:06.396Z,1.50
2022-09-11T21:24:11.759Z,1.70
2022-09-11T21:27:13.536Z,1.88
2022-09-11T21:30:15.408Z,1.55
2022-09-11T21:33:17.498Z,1.42
2022-09-11T21:36:19.236Z,1.85
2022-09-11T21:39:20.927Z,1.80
2022-09-11T21:42:22.655Z,1.50
2022-09-11T21:45:24.467Z,1.85
2022-09-11T21:48:26.271Z,2.03
2022-09-11T21:51:28.195Z,2.28
2022-09-11T21:54:32.169Z,1.90
2022-09-11T21:57:33.881Z,1.58
2022-09-11T22:00:42.054Z,1.98
2022-09-11T22:03:44.756Z,1.60
2022-09-11T22:06:46.526Z,1.55
2022-09-11T22:09:48.464Z,1.67
2022-09-11T22:12:50.772Z,1.85
2022-09-11T22:15:52.943Z,1.83
2022-09-11T22:18:55.166Z,1.67
2022-09-11T22:21:57.159Z,1.60
2022-09-11T22:24:58.890Z,1.90
2022-09-11T22:28:00.566Z,1.88
2022-09-11T22:31:10.478Z,1.75
2022-09-11T22:34:12.285Z,1.40
2022-09-11T22:37:13.984Z,1.52
2022-09-11T22:40:15.941Z,1.70
2022-09-11T22:43:17.734Z,1.60
2022-09-11T22:46:20.842Z,1.42
2022-09-11T22:49:22.707Z,1.52
2022-09-11T22:52:24.523Z,1.45
2022-09-11T22:55:26.212Z,1.42
2022-09-11T22:58:29.251Z,1.70
2022-09-11T23:01:31.867Z,1.70
2022-09-11T23:04:33.730Z,1.73
2022-09-11T23:07:35.481Z,1.90
2022-09-11T23:10:41.531Z,1.40
2022-09-11T23:13:43.865Z,1.80
2022-09-11T23:16:45.562Z,1.70
2022-09-11T23:19:47.986Z,1.20
2022-09-11T23:22:49.744Z,1.25
2022-09-11T23:25:52.215Z,1.45
2022-09-11T23:28:54.336Z,1.60
2022-09-11T23:31:56.634Z,1.67
2022-09-11T23:34:58.386Z,1.60
2022-09-11T23:38:00.731Z,1.55
2022-09-11T23:41:02.463Z,1.52
2022-09-11T23:44:05.297Z,1.42
2022-09-11T23:47:07.036Z,1.60
2022-09-11T23:50:09.519Z,1.33
2022-09-11T23:53:11.205Z,1.67
2022-09-11T23:56:16.081Z,1.60
2022-09-11T23:59:17.890Z,1.55
